Yarrawonga, Victoria

9:09 AM EST on September 02, 2014 (GMT +1000)
Albury | Change Station
CLOSE
Current Station
Airport
Location: Albury,
Elevation: 541 ft
Nearby Weather Stations

Elev 541 ft 36.07 °S, 146.96 °E | Updated 1 hour ago

Mostly Cloudy
Mostly Cloudy
50 °F
Feels Like 50 °F
N
7
Wind Variable Wind from WNW

Today
High -- | Low -- °F
--% Chance of Precip.
Yesterday
High -- | Low -- °F
Precip. -- in
6:35 AM 5:56 PM
Waxing Crescent, 45% visible
Pressure 29.92 in
Visibility 6.2 miles
Clouds Mostly Cloudy 9900 ft
Dew Point 45 °F
Humidity 82%
Rainfall 0.00 in
Snow Depth Not available.
UV 1 out of 12
Pollen Not available.
Air Quality Not available.
Flu Activity Not available.
METAR YMAY 012200Z AUTO 29006KT 9999 // BKN099 10/07 Q1013

More Conditions Fewer Conditions

Pressure 29.92 in
Visibility 6.2 miles
Clouds Mostly Cloudy 9900 ft
Dew Point 45 °F
Humidity 82%
Rainfall 0.00 in
Snow Depth Not available.
UV 1 out of 12
Pollen Not available.
Air Quality Not available.
Flu Activity Not available.
METAR YMAY 012200Z AUTO 29006KT 9999 // BKN099 10/07 Q1013

More Conditions Fewer Conditions

10-Day Weather Forecast

Almanac

Astronomy

Sep. 02, 2014 Rise Set
Actual Time 6:35 AM EST 5:56 PM EST
Civil Twilight 6:09 AM EST 6:22 PM EST
Nautical Twilight 5:40 AM EST 6:52 PM EST
Astronomical Twilight 5:10 AM EST 7:22 PM EST
Moon 10:51 AM EST (9/2) 12:10 AM EST (9/2)
Length of Visible Light 12h 12m
Length of Day
11h 21m
Tomorrow will be 2m 9s longer.
Waxing Crescent, 45% of the Moon is Illuminated
Sep 1
Waxing Crescent
Sep 2
First Quarter
Sep 8
Full
Sep 15
Last Quarter
Sep 24
New

Yesterday's Extremes

Country Highs Country Lows

Community

WunderPhotos

Upload Photos

1,749,427 photos uploaded!

Nearby

Snow Depth

Not available.

Earthquake Activity

City Distance Mag. Time & Date
No recent earthquake activity has been reported nearby.
Minimum magnitude displayed is 2.5.

Coastal Water Temperatures

Place Temperature
No Stations Reporting

Nearby Weather Stations